createdAt,value
2022-08-26T00:00:31.415Z,100797.96
2022-08-26T00:01:34.751Z,100797.96
2022-08-26T00:02:37.984Z,100803.03
2022-08-26T00:03:41.803Z,100794.13
2022-08-26T00:04:44.964Z,100798.04
2022-08-26T00:05:48.259Z,100800.31
2022-08-26T00:06:52.401Z,100809.23
2022-08-26T00:07:56.728Z,100809.84
2022-08-26T00:09:00.328Z,100813.20
2022-08-26T00:10:05.151Z,100811.58
2022-08-26T00:11:08.855Z,100816.89
2022-08-26T00:12:12.285Z,100826.38
2022-08-26T00:13:16.130Z,100818.62
2022-08-26T00:14:24.194Z,100826.44
2022-08-26T00:15:27.403Z,100826.44
2022-08-26T00:16:30.952Z,100826.77
2022-08-26T00:17:34.272Z,100824.27
2022-08-26T00:18:40.844Z,100835.41
2022-08-26T00:19:43.930Z,100818.98
2022-08-26T00:20:47.362Z,100829.29
2022-08-26T00:21:52.267Z,100821.23
2022-08-26T00:22:56.650Z,100828.78
2022-08-26T00:23:59.680Z,100827.95
2022-08-26T00:25:04.227Z,100840.21
2022-08-26T00:26:08.486Z,100834.09
2022-08-26T00:27:13.525Z,100834.09
2022-08-26T00:28:17.140Z,100826.86
2022-08-26T00:29:22.338Z,100826.34
2022-08-26T00:30:29.797Z,100823.56
2022-08-26T00:31:34.102Z,100833.87
2022-08-26T00:32:39.302Z,100828.59
2022-08-26T00:33:42.801Z,100826.92
2022-08-26T00:34:47.807Z,100823.31
2022-08-26T00:35:51.535Z,100818.06
2022-08-26T00:36:55.190Z,100824.75
2022-08-26T00:37:58.938Z,100824.75
2022-08-26T00:39:02.027Z,100825.58
2022-08-26T00:40:09.172Z,100824.75
2022-08-26T00:41:14.193Z,100823.09
2022-08-26T00:42:17.395Z,100814.73
2022-08-26T00:43:21.661Z,100823.37
2022-08-26T00:44:25.542Z,100819.76
2022-08-26T00:45:34.733Z,100816.97
2022-08-26T00:46:47.617Z,100824.53
2022-08-26T00:47:57.132Z,100819.76
2022-08-26T00:49:12.217Z,100815.34
2022-08-26T00:50:15.256Z,100819.25
2022-08-26T00:51:22.231Z,100817.58
2022-08-26T00:52:26.568Z,100815.91
2022-08-26T00:53:33.308Z,100814.25
2022-08-26T00:54:40.109Z,100819.82
2022-08-26T00:55:45.113Z,100815.41
2022-08-26T00:57:01.059Z,100817.36
2022-08-26T00:58:05.838Z,100807.34
2022-08-26T00:59:11.553Z,100806.50
2022-08-26T01:00:19.003Z,100810.41
2022-08-26T01:01:22.963Z,100805.12
2022-08-26T01:02:27.098Z,100810.70
2022-08-26T01:03:34.572Z,100806.28
2022-08-26T01:04:39.640Z,100799.05
2022-08-26T01:05:43.480Z,100792.65
2022-08-26T01:06:49.069Z,100793.77
2022-08-26T01:07:52.527Z,100785.41
2022-08-26T01:08:56.145Z,100789.31
2022-08-26T01:10:02.958Z,100775.69
2022-08-26T01:11:07.972Z,100782.09
2022-08-26T01:12:11.882Z,100780.45
2022-08-26T01:13:15.167Z,100773.22
2022-08-26T01:14:20.864Z,100778.80
2022-08-26T01:15:27.553Z,100777.13
2022-08-26T01:16:32.784Z,100764.33
2022-08-26T01:17:38.148Z,100769.90
2022-08-26T01:18:43.479Z,100762.66
2022-08-26T01:19:53.009Z,100768.55
2022-08-26T01:21:14.939Z,100766.57
2022-08-26T01:22:28.172Z,100764.11
2022-08-26T01:23:36.511Z,100764.39
2022-08-26T01:24:41.234Z,100765.52
2022-08-26T01:25:51.238Z,100760.23
2022-08-26T01:27:04.591Z,100765.00
2022-08-26T01:28:11.275Z,100765.28
2022-08-26T01:29:18.351Z,100756.94
2022-08-26T01:30:21.799Z,100755.27
2022-08-26T01:31:28.183Z,100756.36
2022-08-26T01:32:32.892Z,100755.53
2022-08-26T01:33:42.263Z,100761.93
2022-08-26T01:34:47.203Z,100764.71
2022-08-26T01:35:50.951Z,100771.11
2022-08-26T01:36:58.394Z,100770.02
2022-08-26T01:38:01.714Z,100773.64
2022-08-26T01:39:06.035Z,100774.47
2022-08-26T01:40:16.808Z,100773.64
2022-08-26T01:41:27.492Z,100770.56
2022-08-26T01:42:26.944Z,100768.59
2022-08-26T01:43:33.875Z,100776.94
2022-08-26T01:44:46.684Z,100775.30
2022-08-26T01:45:54.104Z,100786.11
2022-08-26T01:46:59.085Z,100785.28
2022-08-26T01:48:05.874Z,100783.65
2022-08-26T01:49:10.386Z,100787.55
2022-08-26T01:50:27.557Z,100799.80
2022-08-26T01:51:25.795Z,100797.02
2022-08-26T01:52:32.182Z,100794.49
2022-08-26T01:53:36.196Z,100792.83
2022-08-26T01:54:39.602Z,100803.95
2022-08-26T01:55:46.779Z,100796.77
2022-08-26T01:56:53.275Z,100795.92
2022-08-26T01:57:57.178Z,100799.00
2022-08-26T01:59:02.994Z,100794.55
2022-08-26T02:00:11.491Z,100790.10
2022-08-26T02:01:17.128Z,100795.98
2022-08-26T02:02:21.212Z,100794.61
2022-08-26T02:03:26.345Z,100796.05
2022-08-26T02:04:36.069Z,100795.78
2022-08-26T02:05:39.340Z,100804.45
2022-08-26T02:06:43.865Z,100807.51
2022-08-26T02:07:50.168Z,100811.41
2022-08-26T02:08:55.900Z,100807.25
2022-08-26T02:09:59.050Z,100810.34
2022-08-26T02:11:02.148Z,100807.56
2022-08-26T02:12:05.932Z,100807.84
2022-08-26T02:13:10.478Z,100805.06
2022-08-26T02:14:22.992Z,100807.02
2022-08-26T02:15:28.088Z,100801.73
2022-08-26T02:16:38.136Z,100812.86
2022-08-26T02:17:45.322Z,100806.78
2022-08-26T02:18:49.965Z,100811.52
2022-08-26T02:19:56.168Z,100813.47
2022-08-26T02:21:00.232Z,100807.90
2022-08-26T02:22:06.503Z,100804.28
2022-08-26T02:23:09.840Z,100809.84
2022-08-26T02:24:22.071Z,100800.67
2022-08-26T02:25:33.373Z,100811.52
2022-08-26T02:26:37.204Z,100815.41
2022-08-26T02:27:42.090Z,100806.23
2022-08-26T02:28:48.893Z,100809.84
2022-08-26T02:29:55.546Z,100809.02
2022-08-26T02:30:59.119Z,100807.90
2022-08-26T02:32:02.698Z,100810.68
2022-08-26T02:33:06.648Z,100814.30
2022-08-26T02:34:13.613Z,100812.34
2022-08-26T02:35:20.621Z,100815.95
2022-08-26T02:36:28.585Z,100818.74
2022-08-26T02:37:32.530Z,100824.30
2022-08-26T02:38:37.427Z,100828.72
2022-08-26T02:39:43.116Z,100822.05
2022-08-26T02:40:46.435Z,100825.66
2022-08-26T02:41:51.332Z,100829.27
2022-08-26T02:42:57.013Z,100830.10
2022-08-26T02:44:00.445Z,100832.88
2022-08-26T02:45:04.414Z,100832.60
2022-08-26T02:46:07.912Z,100839.00
2022-08-26T02:47:13.938Z,100833.72
2022-08-26T02:48:19.115Z,100842.06
2022-08-26T02:49:23.141Z,100837.33
2022-08-26T02:50:26.786Z,100851.24
2022-08-26T02:51:29.861Z,100844.84
2022-08-26T02:52:32.821Z,100845.68
2022-08-26T02:53:37.193Z,100843.73
2022-08-26T02:54:40.298Z,100846.51
2022-08-26T02:55:43.456Z,100844.56
2022-08-26T02:56:47.130Z,100845.39
2022-08-26T02:57:51.845Z,100849.30
2022-08-26T02:58:55.651Z,100847.34
2022-08-26T03:00:00.252Z,100848.17
2022-08-26T03:01:04.901Z,100853.74
2022-08-26T03:02:10.005Z,100850.13
2022-08-26T03:03:13.604Z,100849.30
2022-08-26T03:04:16.995Z,100843.73
2022-08-26T03:05:23.970Z,100849.30
2022-08-26T03:06:27.782Z,100851.24
2022-08-26T03:07:31.119Z,100847.63
2022-08-26T03:08:34.208Z,100857.64
2022-08-26T03:09:37.200Z,100848.46
2022-08-26T03:10:40.406Z,100848.46
2022-08-26T03:11:43.591Z,100849.30
2022-08-26T03:12:47.304Z,100852.08
2022-08-26T03:13:50.941Z,100855.69
2022-08-26T03:14:55.648Z,100848.17
2022-08-26T03:16:01.358Z,100857.64
2022-08-26T03:17:04.947Z,100857.64
2022-08-26T03:18:09.249Z,100854.02
2022-08-26T03:19:13.633Z,100850.96
2022-08-26T03:20:19.442Z,100855.69
2022-08-26T03:21:22.641Z,100864.87
2022-08-26T03:22:26.309Z,100858.75
2022-08-26T03:23:30.757Z,100859.59
2022-08-26T03:24:36.490Z,100857.64
2022-08-26T03:25:39.592Z,100851.24
2022-08-26T03:26:52.479Z,100854.86
2022-08-26T03:27:49.120Z,100857.92
2022-08-26T03:29:10.606Z,100859.59
2022-08-26T03:30:34.182Z,100863.20
2022-08-26T03:31:37.441Z,100855.69
2022-08-26T03:32:41.509Z,100854.54
2022-08-26T03:33:45.204Z,100858.99
2022-08-26T03:34:48.751Z,100853.14
2022-08-26T03:35:55.127Z,100856.76
2022-08-26T03:36:58.329Z,100860.89
2022-08-26T03:38:02.711Z,100854.21
2022-08-26T03:39:06.531Z,100856.70
2022-08-26T03:40:11.009Z,100858.38
2022-08-26T03:41:14.970Z,100858.09
2022-08-26T03:42:18.379Z,100853.04
2022-08-26T03:43:25.669Z,100852.76
2022-08-26T03:44:28.991Z,100859.98
2022-08-26T03:45:33.286Z,100854.42
2022-08-26T03:46:38.285Z,100862.45
2022-08-26T03:47:42.580Z,100857.72
2022-08-26T03:48:46.082Z,100857.72
2022-08-26T03:49:49.371Z,100866.91
2022-08-26T03:50:54.737Z,100864.13
2022-08-26T03:51:58.960Z,100867.73
2022-08-26T03:53:02.782Z,100867.73
2022-08-26T03:54:08.238Z,100870.52
2022-08-26T03:55:12.510Z,100870.80
2022-08-26T03:56:16.307Z,100871.63
2022-08-26T03:57:19.883Z,100871.63
2022-08-26T03:58:26.014Z,100876.37
2022-08-26T03:59:29.321Z,100881.65
2022-08-26T04:00:32.550Z,100878.31
2022-08-26T04:01:37.523Z,100879.16
2022-08-26T04:02:46.169Z,100881.65
2022-08-26T04:04:00.613Z,100878.03
2022-08-26T04:05:03.380Z,100880.81
2022-08-26T04:06:07.574Z,100875.25
2022-08-26T04:07:12.433Z,100886.38
2022-08-26T04:08:15.584Z,100880.81
2022-08-26T04:09:20.279Z,100878.03
2022-08-26T04:10:28.939Z,100888.05
2022-08-26T04:11:35.316Z,100881.65
2022-08-26T04:12:40.503Z,100881.65
2022-08-26T04:13:43.489Z,100890.83
2022-08-26T04:14:46.802Z,100882.48
2022-08-26T04:15:50.073Z,100890.55
2022-08-26T04:16:55.450Z,100885.81
2022-08-26T04:17:58.660Z,100895.52
2022-08-26T04:19:01.663Z,100894.69
2022-08-26T04:20:06.507Z,100888.86
2022-08-26T04:21:11.511Z,100887.75
2022-08-26T04:22:16.793Z,100891.05
2022-08-26T04:23:21.777Z,100889.93
2022-08-26T04:24:26.349Z,100892.43
2022-08-26T04:25:30.969Z,100889.36
2022-08-26T04:26:36.717Z,100886.27
2022-08-26T04:27:41.756Z,100885.97
2022-08-26T04:28:44.950Z,100894.87
2022-08-26T04:29:49.832Z,100891.80
2022-08-26T04:30:53.095Z,100890.38
2022-08-26T04:31:57.185Z,100893.70
2022-08-26T04:33:00.295Z,100892.27
2022-08-26T04:34:05.329Z,100896.44
2022-08-26T04:35:08.810Z,100892.21
2022-08-26T04:36:12.398Z,100897.20
2022-08-26T04:37:15.932Z,100904.95
2022-08-26T04:38:19.434Z,100898.81
2022-08-26T04:39:22.511Z,100907.69
2022-08-26T04:40:27.090Z,100904.33
2022-08-26T04:41:31.662Z,100916.53
2022-08-26T04:42:35.329Z,100916.24
2022-08-26T04:43:38.441Z,100912.02
2022-08-26T04:44:41.566Z,100906.16
2022-08-26T04:45:44.692Z,100913.11
2022-08-26T04:46:49.226Z,100908.05
2022-08-26T04:47:55.682Z,100913.05
2022-08-26T04:48:58.812Z,100912.44
2022-08-26T04:50:02.108Z,100914.94
2022-08-26T04:51:05.810Z,100907.09
2022-08-26T04:52:08.903Z,100909.59
2022-08-26T04:53:13.129Z,100918.50
2022-08-26T04:54:16.271Z,100921.80
2022-08-26T04:55:19.601Z,100909.53
2022-08-26T04:56:25.392Z,100908.16
2022-08-26T04:57:28.591Z,100910.66
2022-08-26T04:58:32.461Z,100901.68
2022-08-26T04:59:39.132Z,100908.92
2022-08-26T05:00:43.749Z,100907.48
2022-08-26T05:01:49.489Z,100902.73
2022-08-26T05:02:52.613Z,100898.83
2022-08-26T05:03:55.756Z,100896.58
2022-08-26T05:04:59.058Z,100896.58
2022-08-26T05:06:05.239Z,100890.17
2022-08-26T05:07:09.042Z,100893.80
2022-08-26T05:08:14.560Z,100887.09
2022-08-26T05:09:18.917Z,100892.67
2022-08-26T05:10:22.803Z,100882.33
2022-08-26T05:11:26.929Z,100877.59
2022-08-26T05:12:30.929Z,100884.82
2022-08-26T05:13:34.975Z,100886.48
2022-08-26T05:14:38.152Z,100881.45
2022-08-26T05:15:41.239Z,100882.80
2022-08-26T05:16:44.650Z,100881.38
2022-08-26T05:17:50.440Z,100881.89
2022-08-26T05:18:54.306Z,100878.52
2022-08-26T05:19:57.865Z,100877.08
2022-08-26T05:21:03.755Z,100885.69
2022-08-26T05:22:07.467Z,100890.36
2022-08-26T05:23:11.499Z,100879.42
2022-08-26T05:24:15.110Z,100884.09
2022-08-26T05:25:18.147Z,100883.51
2022-08-26T05:27:37.300Z,100884.31
2022-08-26T05:28:40.658Z,100882.22
2022-08-26T05:29:43.722Z,100880.77
2022-08-26T05:30:49.201Z,100884.09
2022-08-26T05:31:52.829Z,100880.69
2022-08-26T05:32:57.811Z,100878.47
2022-08-26T05:34:04.039Z,100873.43
2022-08-26T05:35:08.822Z,100872.27
2022-08-26T05:36:16.898Z,100873.64
2022-08-26T05:37:21.590Z,100868.59
2022-08-26T05:38:24.685Z,100871.06
2022-08-26T05:39:31.756Z,100871.59
2022-08-26T05:40:42.540Z,100865.39
2022-08-26T05:41:45.933Z,100871.52
2022-08-26T05:42:49.277Z,100869.77
2022-08-26T05:43:52.863Z,100868.34
2022-08-26T05:44:56.383Z,100872.47
2022-08-26T05:46:03.006Z,100867.95
2022-08-26T05:47:08.000Z,100871.25
2022-08-26T05:48:12.206Z,100858.36
2022-08-26T05:49:15.994Z,100873.66
2022-08-26T05:50:22.884Z,100873.06
2022-08-26T05:51:26.864Z,100873.27
2022-08-26T05:52:33.469Z,100871.00
2022-08-26T05:53:38.178Z,100873.17
2022-08-26T05:54:41.791Z,100874.20
2022-08-26T05:55:49.907Z,100869.16
2022-08-26T05:56:53.256Z,100878.56
2022-08-26T05:57:56.954Z,100871.55
2022-08-26T05:59:02.003Z,100869.80
2022-08-26T06:00:05.831Z,100872.32
2022-08-26T06:01:15.016Z,100870.03
2022-08-26T06:02:18.270Z,100872.52
2022-08-26T06:03:22.554Z,100871.92
2022-08-26T06:04:27.525Z,100870.46
2022-08-26T06:05:34.226Z,100869.86
2022-08-26T06:06:36.647Z,100870.06
2022-08-26T06:07:59.732Z,100872.22
2022-08-26T06:09:06.502Z,100872.45
2022-08-26T06:10:31.575Z,100867.06
2022-08-26T06:11:25.395Z,100871.72
2022-08-26T06:12:28.506Z,100873.91
2022-08-26T06:13:32.313Z,100864.89
2022-08-26T06:14:35.515Z,100865.09
2022-08-26T06:15:43.941Z,100861.69
2022-08-26T06:16:47.553Z,100871.93
2022-08-26T06:17:50.520Z,100872.13
2022-08-26T06:18:54.015Z,100868.42
2022-08-26T06:19:57.656Z,100864.98
2022-08-26T06:21:12.025Z,100861.25
2022-08-26T06:22:35.196Z,100860.67
2022-08-26T06:23:49.966Z,100856.11
2022-08-26T06:25:11.311Z,100849.08
2022-08-26T06:26:16.717Z,100855.99
2022-08-26T06:27:19.877Z,100855.69
2022-08-26T06:28:24.074Z,100859.80
2022-08-26T06:29:30.515Z,100854.74
2022-08-26T06:30:39.992Z,100854.10
2022-08-26T06:31:44.670Z,100856.28
2022-08-26T06:32:48.402Z,100858.44
2022-08-26T06:33:53.184Z,100853.06
2022-08-26T06:34:57.576Z,100852.11
2022-08-26T06:36:00.918Z,100859.03
2022-08-26T06:37:05.423Z,100855.31
2022-08-26T06:38:09.732Z,100857.47
2022-08-26T06:39:15.313Z,100854.86
2022-08-26T06:40:21.778Z,100853.11
2022-08-26T06:41:25.223Z,100843.23
2022-08-26T06:42:28.701Z,100861.86
2022-08-26T06:43:33.524Z,100860.42
2022-08-26T06:44:36.606Z,100852.55
2022-08-26T06:45:39.901Z,100852.76
2022-08-26T06:46:45.122Z,100862.47
2022-08-26T06:47:48.086Z,100847.03
2022-08-26T06:48:54.037Z,100846.08
2022-08-26T06:49:57.302Z,100839.03
2022-08-26T06:51:07.199Z,100853.20
2022-08-26T06:52:10.678Z,100846.16
2022-08-26T06:53:14.042Z,100853.91
2022-08-26T06:54:17.827Z,100849.31
2022-08-26T06:55:20.922Z,100859.89
2022-08-26T06:56:30.784Z,100848.04
2022-08-26T06:57:35.563Z,100844.62
2022-08-26T06:58:41.599Z,100845.62
2022-08-26T06:59:44.820Z,100840.54
2022-08-26T07:00:48.006Z,100843.83
2022-08-26T07:01:51.710Z,100849.11
2022-08-26T07:02:55.156Z,100848.46
2022-08-26T07:04:00.447Z,100843.69
2022-08-26T07:05:04.566Z,100843.37
2022-08-26T07:06:10.450Z,100834.98
2022-08-26T07:07:14.902Z,100834.66
2022-08-26T07:08:17.902Z,100824.78
2022-08-26T07:09:26.350Z,100820.00
2022-08-26T07:10:30.913Z,100822.49
2022-08-26T07:11:35.243Z,100816.58
2022-08-26T07:12:38.522Z,100818.55
2022-08-26T07:13:41.616Z,100819.38
2022-08-26T07:14:47.417Z,100824.63
2022-08-26T07:15:50.941Z,100817.06
2022-08-26T07:16:56.195Z,100819.55
2022-08-26T07:17:59.107Z,100814.78
2022-08-26T07:19:03.366Z,100812.80
2022-08-26T07:20:08.805Z,100810.00
2022-08-26T07:21:14.735Z,100815.30
2022-08-26T07:22:18.222Z,100809.69
2022-08-26T07:23:21.356Z,100809.69
2022-08-26T07:24:28.404Z,100802.95
2022-08-26T07:25:30.578Z,100800.14
2022-08-26T07:26:34.085Z,100800.97
2022-08-26T07:27:38.354Z,100805.75
2022-08-26T07:28:42.865Z,100800.97
2022-08-26T07:29:46.713Z,100801.80
2022-08-26T07:30:50.149Z,100802.12
2022-08-26T07:31:54.546Z,100799.31
2022-08-26T07:32:59.718Z,100799.00
2022-08-26T07:34:03.626Z,100792.89
2022-08-26T07:35:07.490Z,100794.06
2022-08-26T07:36:12.294Z,100793.52
2022-08-26T07:37:15.644Z,100793.83
2022-08-26T07:38:20.789Z,100791.38
2022-08-26T07:39:23.963Z,100789.20
2022-08-26T07:40:28.812Z,100787.54
2022-08-26T07:41:32.080Z,100782.59
2022-08-26T07:42:35.308Z,100790.17
2022-08-26T07:43:38.605Z,100790.48
2022-08-26T07:44:42.885Z,100788.03
2022-08-26T07:45:46.132Z,100788.34
2022-08-26T07:46:53.106Z,100793.11
2022-08-26T07:47:55.626Z,100790.31
2022-08-26T07:48:59.313Z,100793.94
2022-08-26T07:50:03.154Z,100785.54
2022-08-26T07:51:06.508Z,100794.77
2022-08-26T07:52:09.646Z,100786.02
2022-08-26T07:53:14.880Z,100783.23
2022-08-26T07:54:20.840Z,100786.54
2022-08-26T07:55:25.887Z,100779.80
2022-08-26T07:56:30.525Z,100784.25
2022-08-26T07:57:34.195Z,100777.52
2022-08-26T07:58:38.223Z,100784.42
2022-08-26T07:59:41.330Z,100782.97
2022-08-26T08:00:45.033Z,100787.08
2022-08-26T08:01:48.278Z,100782.00
2022-08-26T08:02:53.614Z,100768.50
2022-08-26T08:03:59.816Z,100775.45
2022-08-26T08:05:05.746Z,100775.97
2022-08-26T08:06:09.831Z,100773.64
2022-08-26T08:07:12.975Z,100774.16
2022-08-26T08:08:26.329Z,100775.47
2022-08-26T08:09:23.111Z,100773.18
2022-08-26T08:10:28.220Z,100773.70
2022-08-26T08:11:31.862Z,100765.45
2022-08-26T08:12:35.096Z,100765.45
2022-08-26T08:13:38.641Z,100779.98
2022-08-26T08:14:43.874Z,100771.22
2022-08-26T08:15:47.308Z,100764.98
2022-08-26T08:16:54.636Z,100775.87
2022-08-26T08:18:00.620Z,100762.34
2022-08-26T08:19:02.726Z,100762.03
2022-08-26T08:20:08.325Z,100752.48
2022-08-26T08:21:21.709Z,100762.54
2022-08-26T08:22:19.938Z,100755.77
2022-08-26T08:23:22.679Z,100755.44
2022-08-26T08:24:29.187Z,100754.81
2022-08-26T08:25:33.807Z,100756.44
2022-08-26T08:26:37.015Z,100751.34
2022-08-26T08:27:41.290Z,100762.23
2022-08-26T08:28:45.700Z,100752.33
2022-08-26T08:29:52.582Z,100749.20
2022-08-26T08:30:57.262Z,100749.71
2022-08-26T08:32:04.384Z,100749.36
2022-08-26T08:33:08.859Z,100753.50
2022-08-26T08:34:14.471Z,100756.31
2022-08-26T08:35:21.448Z,100753.98
2022-08-26T08:36:25.884Z,100752.01
2022-08-26T08:37:30.882Z,100754.48
2022-08-26T08:38:35.030Z,100750.22
2022-08-26T08:39:38.385Z,100747.10
2022-08-26T08:40:44.653Z,100749.58
2022-08-26T08:42:12.574Z,100747.29
2022-08-26T08:43:19.329Z,100756.17
2022-08-26T08:45:47.216Z,100750.76
2022-08-26T08:47:03.959Z,100739.19
2022-08-26T08:48:22.299Z,100750.59
2022-08-26T08:49:27.925Z,100747.47
2022-08-26T08:50:35.926Z,100737.88
2022-08-26T08:51:45.357Z,100743.48
2022-08-26T08:52:51.287Z,100745.14
2022-08-26T08:53:55.131Z,100740.36
2022-08-26T08:54:58.317Z,100736.41
2022-08-26T08:56:26.346Z,100740.86
2022-08-26T08:57:39.075Z,100739.72
2022-08-26T08:58:56.904Z,100743.83
2022-08-26T09:00:07.255Z,100748.79
2022-08-26T09:01:14.029Z,100744.48
2022-08-26T09:02:36.060Z,100746.14
2022-08-26T09:03:51.624Z,100745.47
2022-08-26T09:06:18.189Z,100737.36
2022-08-26T09:07:36.564Z,100747.78
2022-08-26T09:08:40.860Z,100748.28
2022-08-26T09:09:50.929Z,100737.53
2022-08-26T09:10:56.776Z,100742.00
2022-08-26T09:12:02.873Z,100734.41
2022-08-26T09:13:10.988Z,100738.87
2022-08-26T09:14:15.527Z,100739.70
2022-08-26T09:15:30.552Z,100742.17
2022-08-26T09:16:37.832Z,100740.17
2022-08-26T09:18:04.502Z,100746.28
2022-08-26T09:19:28.954Z,100740.34
2022-08-26T09:20:53.937Z,100743.62
2022-08-26T09:21:58.447Z,100748.92
2022-08-26T09:23:01.797Z,100746.94
2022-08-26T09:24:05.885Z,100745.47
2022-08-26T09:25:12.190Z,100743.16
2022-08-26T09:26:24.750Z,100740.86
2022-08-26T09:27:50.383Z,100750.58
2022-08-26T09:29:03.000Z,100746.30
2022-08-26T09:30:07.416Z,100745.62
2022-08-26T09:31:34.171Z,100744.14
2022-08-26T09:32:38.984Z,100742.16
2022-08-26T09:33:42.808Z,100743.46
2022-08-26T09:35:01.394Z,100748.75
2022-08-26T09:36:25.277Z,100746.77
2022-08-26T09:37:38.403Z,100751.23
2022-08-26T09:38:43.391Z,100748.09
2022-08-26T09:39:48.422Z,100746.91
2022-08-26T09:41:01.377Z,100751.38
2022-08-26T09:42:21.821Z,100750.22
2022-08-26T09:43:27.811Z,100749.07
2022-08-26T09:44:37.851Z,100747.09
2022-08-26T09:45:50.806Z,100750.72
2022-08-26T09:47:01.188Z,100745.11
2022-08-26T09:48:07.326Z,100745.11
2022-08-26T09:49:29.133Z,100746.77
2022-08-26T09:50:54.168Z,100741.95
2022-08-26T09:52:16.130Z,100741.15
2022-08-26T09:53:28.475Z,100747.92
2022-08-26T09:54:30.517Z,100748.24
2022-08-26T09:55:39.231Z,100745.77
2022-08-26T09:56:45.883Z,100750.55
2022-08-26T09:57:56.286Z,100746.91
2022-08-26T09:59:01.900Z,100752.53
2022-08-26T10:00:08.743Z,100748.56
2022-08-26T10:01:18.333Z,100749.39
2022-08-26T10:02:35.628Z,100754.69
2022-08-26T10:03:45.290Z,100750.72
2022-08-26T10:04:55.183Z,100751.20
2022-08-26T10:06:15.117Z,100750.05
2022-08-26T10:07:42.637Z,100755.01
2022-08-26T10:08:49.332Z,100757.12
2022-08-26T10:09:56.922Z,100759.25
2022-08-26T10:11:07.602Z,100752.98
2022-08-26T10:12:20.654Z,100752.66
2022-08-26T10:13:30.660Z,100751.15
2022-08-26T10:14:51.244Z,100746.86
2022-08-26T10:16:02.410Z,100750.97
2022-08-26T10:17:09.166Z,100746.34
2022-08-26T10:18:15.965Z,100748.80
2022-08-26T10:19:25.771Z,100745.66
2022-08-26T10:20:40.639Z,100742.55
2022-08-26T10:22:05.435Z,100739.39
2022-08-26T10:23:18.433Z,100735.42
2022-08-26T10:24:35.342Z,100724.19
2022-08-26T10:25:53.721Z,100725.84
2022-08-26T10:27:08.046Z,100725.52
2022-08-26T10:28:32.936Z,100721.87
2022-08-26T10:29:41.471Z,100716.39
2022-08-26T10:30:51.384Z,100714.41
2022-08-26T10:31:58.817Z,100711.61
2022-08-26T10:33:11.843Z,100709.30
2022-08-26T10:34:16.747Z,100709.30
2022-08-26T10:35:20.427Z,100721.36
2022-08-26T10:37:10.757Z,100710.59
2022-08-26T10:37:55.161Z,100715.37
2022-08-26T10:39:03.646Z,100708.60
2022-08-26T10:40:19.261Z,100701.00
2022-08-26T10:41:25.386Z,100703.81
2022-08-26T10:42:38.138Z,100711.08
2022-08-26T10:43:44.548Z,100707.94
2022-08-26T10:44:51.174Z,100707.94
2022-08-26T10:46:00.870Z,100703.98
2022-08-26T10:47:07.752Z,100707.94
2022-08-26T10:48:14.574Z,100711.91
2022-08-26T10:49:17.764Z,100714.72
2022-08-26T10:50:24.901Z,100712.73
2022-08-26T10:51:36.461Z,100706.29
2022-08-26T10:52:52.375Z,100714.72
2022-08-26T10:54:20.985Z,100712.73
2022-08-26T10:55:27.776Z,100709.92
2022-08-26T10:56:47.871Z,100700.67
2022-08-26T10:57:57.511Z,100702.33
2022-08-26T10:59:13.038Z,100708.41
2022-08-26T11:00:43.909Z,100700.80
2022-08-26T11:02:03.971Z,100704.11
2022-08-26T11:03:21.965Z,100700.14
2022-08-26T11:04:34.942Z,100698.95
2022-08-26T11:05:38.230Z,100696.64
2022-08-26T11:06:45.581Z,100698.30
2022-08-26T11:07:53.480Z,100696.31
2022-08-26T11:09:06.814Z,100693.17
2022-08-26T11:10:19.951Z,100696.78
2022-08-26T11:11:44.939Z,100687.55
2022-08-26T11:12:59.058Z,100701.60
2022-08-26T11:14:08.082Z,100691.52
2022-08-26T11:15:25.361Z,100692.34
2022-08-26T11:16:49.015Z,100691.52
2022-08-26T11:17:56.941Z,100694.66
2022-08-26T11:19:00.382Z,100689.04
2022-08-26T11:20:08.957Z,100677.80
2022-08-26T11:21:50.831Z,100689.04
2022-08-26T11:22:55.584Z,100682.27
2022-08-26T11:23:58.764Z,100691.52
2022-08-26T11:25:12.121Z,100685.07
2022-08-26T11:26:20.390Z,100682.27
2022-08-26T11:27:38.418Z,100677.80
2022-08-26T11:28:49.698Z,100671.02
2022-08-26T11:30:05.311Z,100678.30
2022-08-26T11:31:11.237Z,100677.93
2022-08-26T11:32:36.337Z,100684.37
2022-08-26T11:33:57.431Z,100681.56
2022-08-26T11:35:06.994Z,100669.17
2022-08-26T11:36:12.698Z,100666.36
2022-08-26T11:37:17.829Z,100670.00
2022-08-26T11:38:24.392Z,100673.97
2022-08-26T11:39:38.381Z,100673.14
2022-08-26T11:40:42.015Z,100671.16
2022-08-26T11:41:52.935Z,100662.72
2022-08-26T11:42:59.623Z,100664.70
2022-08-26T11:44:04.984Z,100673.97
2022-08-26T11:45:23.685Z,100670.33
2022-08-26T11:46:31.682Z,100668.34
2022-08-26T11:47:37.335Z,100665.86
2022-08-26T11:48:43.970Z,100669.50
2022-08-26T11:49:47.449Z,100664.24
2022-08-26T11:51:00.157Z,100669.04
2022-08-26T11:52:12.881Z,100658.95
2022-08-26T11:53:18.177Z,100667.38
2022-08-26T11:54:35.426Z,100660.94
2022-08-26T11:55:30.410Z,100664.91
2022-08-26T11:56:35.643Z,100655.66
2022-08-26T11:57:48.379Z,100657.64
2022-08-26T11:58:54.073Z,100666.89
2022-08-26T11:59:58.275Z,100662.43
2022-08-26T12:01:06.211Z,100653.20
2022-08-26T12:02:14.872Z,100641.14
2022-08-26T12:03:24.363Z,100650.73
2022-08-26T12:04:34.067Z,100655.52
2022-08-26T12:05:43.537Z,100658.33
2022-08-26T12:06:50.670Z,100658.66
2022-08-26T12:07:54.756Z,100647.42
2022-08-26T12:09:02.040Z,100649.41
2022-08-26T12:10:06.607Z,100654.20
2022-08-26T12:11:22.534Z,100643.33
2022-08-26T12:12:35.057Z,100652.91
2022-08-26T12:13:38.579Z,100642.83
2022-08-26T12:14:42.257Z,100635.55
2022-08-26T12:15:55.816Z,100649.97
2022-08-26T12:17:14.847Z,100639.06
2022-08-26T12:18:29.727Z,100640.22
2022-08-26T12:19:32.962Z,100639.39
2022-08-26T12:20:48.370Z,100626.17
2022-08-26T12:22:04.167Z,100645.34
2022-08-26T12:23:07.836Z,100632.95
2022-08-26T12:24:15.499Z,100628.16
2022-08-26T12:25:23.053Z,100641.05
2022-08-26T12:26:33.144Z,100637.91
2022-08-26T12:27:44.982Z,100633.11
2022-08-26T12:28:53.536Z,100629.11
2022-08-26T12:30:09.164Z,100637.54
2022-08-26T12:31:20.673Z,100632.75
2022-08-26T12:32:24.344Z,100635.55
2022-08-26T12:33:28.699Z,100627.95
2022-08-26T12:34:32.508Z,100627.13
2022-08-26T12:35:40.402Z,100623.49
2022-08-26T12:36:48.617Z,100627.13
2022-08-26T12:37:53.774Z,100618.70
2022-08-26T12:38:59.190Z,100615.56
2022-08-26T12:40:25.309Z,100617.21
2022-08-26T12:41:41.171Z,100610.44
2022-08-26T12:42:44.443Z,100617.34
2022-08-26T12:43:47.757Z,100609.73
2022-08-26T12:44:59.967Z,100607.75
2022-08-26T12:46:04.159Z,100611.05
2022-08-26T12:47:32.727Z,100616.80
2022-08-26T12:48:33.299Z,100612.47